sensor_id;sensor_type;location;lat;lon;timestamp;P1;durP1;ratioP1;P2;durP2;ratioP2
13122;SDS011;6627;50.920;12.050;2024-03-22T00:00:22;10.27;;;5.50;;
13122;SDS011;6627;50.920;12.050;2024-03-22T00:02:49;10.53;;;5.40;;
13122;SDS011;6627;50.920;12.050;2024-03-22T00:05:16;8.43;;;5.60;;
13122;SDS011;6627;50.920;12.050;2024-03-22T00:07:42;8.97;;;5.13;;
13122;SDS011;6627;50.920;12.050;2024-03-22T00:10:10;8.30;;;5.53;;
13122;SDS011;6627;50.920;12.050;2024-03-22T00:12:36;6.17;;;5.47;;
13122;SDS011;6627;50.920;12.050;2024-03-22T00:15:04;8.87;;;5.53;;
13122;SDS011;6627;50.920;12.050;2024-03-22T00:17:32;10.10;;;5.40;;
13122;SDS011;6627;50.920;12.050;2024-03-22T00:20:01;8.30;;;5.80;;
13122;SDS011;6627;50.920;12.050;2024-03-22T00:22:27;8.60;;;5.87;;
13122;SDS011;6627;50.920;12.050;2024-03-22T00:24:54;7.80;;;5.40;;
13122;SDS011;6627;50.920;12.050;2024-03-22T00:27:21;10.40;;;6.27;;
13122;SDS011;6627;50.920;12.050;2024-03-22T00:29:48;10.17;;;6.27;;
13122;SDS011;6627;50.920;12.050;2024-03-22T00:32:14;7.40;;;5.33;;
13122;SDS011;6627;50.920;12.050;2024-03-22T00:34:43;11.07;;;5.70;;
13122;SDS011;6627;50.920;12.050;2024-03-22T00:37:10;7.53;;;5.60;;
13122;SDS011;6627;50.920;12.050;2024-03-22T00:39:38;12.30;;;6.23;;
13122;SDS011;6627;50.920;12.050;2024-03-22T00:42:04;11.03;;;5.47;;
13122;SDS011;6627;50.920;12.050;2024-03-22T00:44:31;8.03;;;5.20;;
13122;SDS011;6627;50.920;12.050;2024-03-22T00:46:58;8.67;;;5.47;;
13122;SDS011;6627;50.920;12.050;2024-03-22T00:49:27;10.03;;;6.23;;
13122;SDS011;6627;50.920;12.050;2024-03-22T00:51:55;7.80;;;5.60;;
13122;SDS011;6627;50.920;12.050;2024-03-22T00:54:23;7.50;;;5.73;;
13122;SDS011;6627;50.920;12.050;2024-03-22T00:56:49;7.57;;;5.17;;
13122;SDS011;6627;50.920;12.050;2024-03-22T00:59:16;10.63;;;6.23;;
13122;SDS011;6627;50.920;12.050;2024-03-22T01:01:43;14.10;;;5.80;;
13122;SDS011;6627;50.920;12.050;2024-03-22T01:04:10;11.90;;;6.33;;
13122;SDS011;6627;50.920;12.050;2024-03-22T01:06:36;7.23;;;6.00;;
13122;SDS011;6627;50.920;12.050;2024-03-22T01:09:06;7.63;;;5.83;;
13122;SDS011;6627;50.920;12.050;2024-03-22T01:11:33;8.93;;;6.10;;
13122;SDS011;6627;50.920;12.050;2024-03-22T01:14:00;9.43;;;6.00;;
13122;SDS011;6627;50.920;12.050;2024-03-22T01:16:26;9.73;;;6.23;;
13122;SDS011;6627;50.920;12.050;2024-03-22T01:18:53;8.43;;;5.83;;
13122;SDS011;6627;50.920;12.050;2024-03-22T01:21:20;9.53;;;6.27;;
13122;SDS011;6627;50.920;12.050;2024-03-22T01:23:50;8.47;;;6.80;;
13122;SDS011;6627;50.920;12.050;2024-03-22T01:26:19;9.67;;;5.93;;
13122;SDS011;6627;50.920;12.050;2024-03-22T01:28:46;9.60;;;6.00;;
13122;SDS011;6627;50.920;12.050;2024-03-22T01:31:13;15.03;;;6.80;;
13122;SDS011;6627;50.920;12.050;2024-03-22T01:33:41;9.03;;;6.27;;
13122;SDS011;6627;50.920;12.050;2024-03-22T01:36:07;8.10;;;5.53;;
13122;SDS011;6627;50.920;12.050;2024-03-22T01:38:34;8.40;;;5.73;;
13122;SDS011;6627;50.920;12.050;2024-03-22T01:41:01;9.87;;;5.33;;
13122;SDS011;6627;50.920;12.050;2024-03-22T01:43:29;9.60;;;5.90;;
13122;SDS011;6627;50.920;12.050;2024-03-22T01:45:56;8.20;;;6.13;;
13122;SDS011;6627;50.920;12.050;2024-03-22T01:48:23;10.67;;;6.17;;
13122;SDS011;6627;50.920;12.050;2024-03-22T01:50:50;10.33;;;6.77;;
13122;SDS011;6627;50.920;12.050;2024-03-22T01:53:18;10.13;;;6.50;;
13122;SDS011;6627;50.920;12.050;2024-03-22T01:55:45;10.47;;;6.43;;
13122;SDS011;6627;50.920;12.050;2024-03-22T01:58:13;9.97;;;6.97;;
13122;SDS011;6627;50.920;12.050;2024-03-22T02:00:42;8.47;;;5.67;;
13122;SDS011;6627;50.920;12.050;2024-03-22T02:03:09;14.63;;;5.80;;
13122;SDS011;6627;50.920;12.050;2024-03-22T02:05:35;11.23;;;5.47;;
13122;SDS011;6627;50.920;12.050;2024-03-22T02:08:03;7.93;;;5.47;;
13122;SDS011;6627;50.920;12.050;2024-03-22T02:10:30;8.60;;;5.37;;
13122;SDS011;6627;50.920;12.050;2024-03-22T02:12:58;9.97;;;5.70;;
13122;SDS011;6627;50.920;12.050;2024-03-22T02:15:24;9.37;;;5.03;;
13122;SDS011;6627;50.920;12.050;2024-03-22T02:17:53;8.03;;;5.23;;
13122;SDS011;6627;50.920;12.050;2024-03-22T02:20:19;8.23;;;5.47;;
13122;SDS011;6627;50.920;12.050;2024-03-22T02:22:47;7.60;;;5.37;;
13122;SDS011;6627;50.920;12.050;2024-03-22T02:25:14;8.53;;;5.60;;
13122;SDS011;6627;50.920;12.050;2024-03-22T02:27:42;10.47;;;5.70;;
13122;SDS011;6627;50.920;12.050;2024-03-22T02:30:09;9.70;;;5.90;;
13122;SDS011;6627;50.920;12.050;2024-03-22T02:32:36;11.03;;;6.10;;
13122;SDS011;6627;50.920;12.050;2024-03-22T02:35:05;8.17;;;6.17;;
13122;SDS011;6627;50.920;12.050;2024-03-22T02:37:33;10.77;;;6.30;;
13122;SDS011;6627;50.920;12.050;2024-03-22T02:39:59;11.47;;;5.83;;
13122;SDS011;6627;50.920;12.050;2024-03-22T02:42:28;8.23;;;5.87;;
13122;SDS011;6627;50.920;12.050;2024-03-22T02:44:55;8.70;;;6.13;;
13122;SDS011;6627;50.920;12.050;2024-03-22T02:47:22;9.83;;;5.87;;
13122;SDS011;6627;50.920;12.050;2024-03-22T02:49:49;11.50;;;5.77;;
13122;SDS011;6627;50.920;12.050;2024-03-22T02:52:16;7.93;;;5.77;;
13122;SDS011;6627;50.920;12.050;2024-03-22T02:54:42;11.03;;;6.33;;
13122;SDS011;6627;50.920;12.050;2024-03-22T02:57:09;9.07;;;6.00;;
13122;SDS011;6627;50.920;12.050;2024-03-22T02:59:37;7.90;;;5.40;;
13122;SDS011;6627;50.920;12.050;2024-03-22T03:02:04;9.90;;;6.30;;
13122;SDS011;6627;50.920;12.050;2024-03-22T03:04:30;10.63;;;6.73;;
13122;SDS011;6627;50.920;12.050;2024-03-22T03:06:58;8.03;;;6.07;;
13122;SDS011;6627;50.920;12.050;2024-03-22T03:09:24;7.80;;;5.83;;
13122;SDS011;6627;50.920;12.050;2024-03-22T03:11:51;9.17;;;6.53;;
13122;SDS011;6627;50.920;12.050;2024-03-22T03:14:18;10.13;;;6.03;;
13122;SDS011;6627;50.920;12.050;2024-03-22T03:16:46;7.73;;;6.10;;
13122;SDS011;6627;50.920;12.050;2024-03-22T03:19:14;9.13;;;6.20;;
13122;SDS011;6627;50.920;12.050;2024-03-22T03:21:42;13.33;;;6.73;;
13122;SDS011;6627;50.920;12.050;2024-03-22T03:24:08;10.57;;;6.43;;
13122;SDS011;6627;50.920;12.050;2024-03-22T03:26:35;12.97;;;6.10;;
13122;SDS011;6627;50.920;12.050;2024-03-22T03:29:01;13.17;;;6.63;;
13122;SDS011;6627;50.920;12.050;2024-03-22T03:31:29;10.03;;;6.27;;
13122;SDS011;6627;50.920;12.050;2024-03-22T03:33:56;11.00;;;7.27;;
13122;SDS011;6627;50.920;12.050;2024-03-22T03:36:24;6.90;;;6.20;;
13122;SDS011;6627;50.920;12.050;2024-03-22T03:38:50;10.80;;;7.70;;
13122;SDS011;6627;50.920;12.050;2024-03-22T03:41:18;11.93;;;6.87;;
13122;SDS011;6627;50.920;12.050;2024-03-22T03:43:44;14.30;;;7.50;;
13122;SDS011;6627;50.920;12.050;2024-03-22T03:46:12;11.53;;;7.67;;
13122;SDS011;6627;50.920;12.050;2024-03-22T03:48:38;11.87;;;7.83;;
13122;SDS011;6627;50.920;12.050;2024-03-22T03:51:07;10.67;;;7.77;;
13122;SDS011;6627;50.920;12.050;2024-03-22T03:53:33;9.53;;;7.33;;
13122;SDS011;6627;50.920;12.050;2024-03-22T03:56:00;12.87;;;8.17;;
13122;SDS011;6627;50.920;12.050;2024-03-22T03:58:27;13.33;;;8.37;;
13122;SDS011;6627;50.920;12.050;2024-03-22T04:00:54;14.37;;;8.80;;
13122;SDS011;6627;50.920;12.050;2024-03-22T04:03:20;15.57;;;8.60;;
13122;SDS011;6627;50.920;12.050;2024-03-22T04:05:55;11.00;;;8.40;;
13122;SDS011;6627;50.920;12.050;2024-03-22T04:08:23;10.17;;;8.23;;
13122;SDS011;6627;50.920;12.050;2024-03-22T04:10:51;11.63;;;8.30;;
13122;SDS011;6627;50.920;12.050;2024-03-22T04:13:19;10.70;;;8.30;;
13122;SDS011;6627;50.920;12.050;2024-03-22T04:15:46;10.50;;;7.90;;
13122;SDS011;6627;50.920;12.050;2024-03-22T04:18:13;13.97;;;8.40;;
13122;SDS011;6627;50.920;12.050;2024-03-22T04:20:40;13.30;;;8.70;;
13122;SDS011;6627;50.920;12.050;2024-03-22T04:23:06;10.80;;;7.80;;
13122;SDS011;6627;50.920;12.050;2024-03-22T04:25:35;13.90;;;8.07;;
13122;SDS011;6627;50.920;12.050;2024-03-22T04:28:01;12.53;;;7.67;;
13122;SDS011;6627;50.920;12.050;2024-03-22T04:30:29;9.20;;;7.50;;
13122;SDS011;6627;50.920;12.050;2024-03-22T04:32:55;11.83;;;7.90;;
13122;SDS011;6627;50.920;12.050;2024-03-22T04:35:22;11.13;;;7.53;;
13122;SDS011;6627;50.920;12.050;2024-03-22T04:37:48;10.87;;;7.60;;
13122;SDS011;6627;50.920;12.050;2024-03-22T04:40:16;8.87;;;7.20;;
13122;SDS011;6627;50.920;12.050;2024-03-22T04:42:45;9.80;;;7.73;;
13122;SDS011;6627;50.920;12.050;2024-03-22T04:45:12;10.80;;;7.93;;
13122;SDS011;6627;50.920;12.050;2024-03-22T04:47:39;11.57;;;8.33;;
13122;SDS011;6627;50.920;12.050;2024-03-22T04:50:06;12.23;;;8.10;;
13122;SDS011;6627;50.920;12.050;2024-03-22T04:52:34;12.73;;;7.87;;
13122;SDS011;6627;50.920;12.050;2024-03-22T04:55:01;10.83;;;7.07;;
13122;SDS011;6627;50.920;12.050;2024-03-22T04:57:28;12.57;;;8.13;;
13122;SDS011;6627;50.920;12.050;2024-03-22T04:59:56;12.50;;;7.63;;
13122;SDS011;6627;50.920;12.050;2024-03-22T05:02:23;12.07;;;7.53;;
13122;SDS011;6627;50.920;12.050;2024-03-22T05:04:49;10.30;;;8.60;;
13122;SDS011;6627;50.920;12.050;2024-03-22T05:07:17;13.20;;;7.83;;
13122;SDS011;6627;50.920;12.050;2024-03-22T05:09:43;14.93;;;8.50;;
13122;SDS011;6627;50.920;12.050;2024-03-22T05:12:10;9.93;;;7.13;;
13122;SDS011;6627;50.920;12.050;2024-03-22T05:14:37;9.83;;;8.63;;
13122;SDS011;6627;50.920;12.050;2024-03-22T05:17:05;13.97;;;8.00;;
13122;SDS011;6627;50.920;12.050;2024-03-22T05:19:32;12.53;;;8.10;;
13122;SDS011;6627;50.920;12.050;2024-03-22T05:22:00;13.67;;;7.57;;
13122;SDS011;6627;50.920;12.050;2024-03-22T05:24:26;11.97;;;7.67;;
13122;SDS011;6627;50.920;12.050;2024-03-22T05:26:54;8.77;;;7.13;;
13122;SDS011;6627;50.920;12.050;2024-03-22T05:29:20;10.27;;;7.13;;
13122;SDS011;6627;50.920;12.050;2024-03-22T05:31:48;11.73;;;7.23;;
13122;SDS011;6627;50.920;12.050;2024-03-22T05:34:18;13.03;;;9.40;;
13122;SDS011;6627;50.920;12.050;2024-03-22T05:36:45;16.17;;;12.30;;
13122;SDS011;6627;50.920;12.050;2024-03-22T05:39:12;47.40;;;35.50;;
13122;SDS011;6627;50.920;12.050;2024-03-22T05:41:40;51.40;;;39.67;;
13122;SDS011;6627;50.920;12.050;2024-03-22T05:44:07;42.23;;;33.07;;
13122;SDS011;6627;50.920;12.050;2024-03-22T05:46:34;17.17;;;14.37;;
13122;SDS011;6627;50.920;12.050;2024-03-22T05:49:01;11.10;;;8.50;;
13122;SDS011;6627;50.920;12.050;2024-03-22T05:51:29;11.30;;;8.13;;
13122;SDS011;6627;50.920;12.050;2024-03-22T05:53:56;11.27;;;8.20;;
13122;SDS011;6627;50.920;12.050;2024-03-22T05:56:23;12.10;;;8.50;;
13122;SDS011;6627;50.920;12.050;2024-03-22T05:58:49;10.67;;;7.90;;
13122;SDS011;6627;50.920;12.050;2024-03-22T06:01:16;12.60;;;8.77;;
13122;SDS011;6627;50.920;12.050;2024-03-22T06:03:42;10.43;;;7.87;;
13122;SDS011;6627;50.920;12.050;2024-03-22T06:06:10;12.47;;;8.30;;
13122;SDS011;6627;50.920;12.050;2024-03-22T06:08:38;10.10;;;8.03;;
13122;SDS011;6627;50.920;12.050;2024-03-22T06:11:07;12.53;;;8.93;;
13122;SDS011;6627;50.920;12.050;2024-03-22T06:13:33;12.97;;;8.53;;
13122;SDS011;6627;50.920;12.050;2024-03-22T06:16:02;12.70;;;8.40;;
13122;SDS011;6627;50.920;12.050;2024-03-22T06:18:29;12.50;;;8.50;;
13122;SDS011;6627;50.920;12.050;2024-03-22T06:20:56;14.20;;;9.00;;
13122;SDS011;6627;50.920;12.050;2024-03-22T06:23:23;10.23;;;8.53;;
13122;SDS011;6627;50.920;12.050;2024-03-22T06:25:55;11.57;;;9.10;;
13122;SDS011;6627;50.920;12.050;2024-03-22T06:28:21;13.20;;;9.10;;
13122;SDS011;6627;50.920;12.050;2024-03-22T06:30:50;12.30;;;9.23;;
13122;SDS011;6627;50.920;12.050;2024-03-22T06:33:16;14.07;;;9.20;;
13122;SDS011;6627;50.920;12.050;2024-03-22T06:35:45;11.13;;;8.63;;
13122;SDS011;6627;50.920;12.050;2024-03-22T06:38:12;14.47;;;8.87;;
13122;SDS011;6627;50.920;12.050;2024-03-22T06:40:40;13.63;;;9.10;;
13122;SDS011;6627;50.920;12.050;2024-03-22T06:43:08;12.20;;;9.00;;
13122;SDS011;6627;50.920;12.050;2024-03-22T06:45:35;13.90;;;8.30;;
13122;SDS011;6627;50.920;12.050;2024-03-22T06:48:02;11.80;;;7.70;;
13122;SDS011;6627;50.920;12.050;2024-03-22T06:50:30;14.27;;;8.40;;
13122;SDS011;6627;50.920;12.050;2024-03-22T06:52:56;14.97;;;8.47;;
13122;SDS011;6627;50.920;12.050;2024-03-22T06:55:24;11.17;;;7.80;;
13122;SDS011;6627;50.920;12.050;2024-03-22T06:57:50;11.23;;;8.13;;
13122;SDS011;6627;50.920;12.050;2024-03-22T07:00:19;18.93;;;8.10;;
13122;SDS011;6627;50.920;12.050;2024-03-22T07:02:45;14.93;;;8.17;;
13122;SDS011;6627;50.920;12.050;2024-03-22T07:05:13;11.40;;;8.17;;
13122;SDS011;6627;50.920;12.050;2024-03-22T07:07:39;14.33;;;8.37;;
13122;SDS011;6627;50.920;12.050;2024-03-22T07:10:06;12.63;;;8.20;;
13122;SDS011;6627;50.920;12.050;2024-03-22T07:12:34;10.50;;;8.50;;
13122;SDS011;6627;50.920;12.050;2024-03-22T07:15:01;14.03;;;8.97;;
13122;SDS011;6627;50.920;12.050;2024-03-22T07:17:31;11.90;;;8.80;;
13122;SDS011;6627;50.920;12.050;2024-03-22T07:19:58;12.80;;;8.10;;
13122;SDS011;6627;50.920;12.050;2024-03-22T07:22:24;11.67;;;7.83;;
13122;SDS011;6627;50.920;12.050;2024-03-22T07:24:52;10.67;;;8.53;;
13122;SDS011;6627;50.920;12.050;2024-03-22T07:27:18;13.00;;;8.70;;
13122;SDS011;6627;50.920;12.050;2024-03-22T07:29:46;12.97;;;8.43;;
13122;SDS011;6627;50.920;12.050;2024-03-22T07:32:12;13.23;;;9.10;;
13122;SDS011;6627;50.920;12.050;2024-03-22T07:34:45;15.23;;;8.43;;
13122;SDS011;6627;50.920;12.050;2024-03-22T07:37:11;15.73;;;8.53;;
13122;SDS011;6627;50.920;12.050;2024-03-22T07:39:39;12.83;;;8.10;;
13122;SDS011;6627;50.920;12.050;2024-03-22T07:42:05;13.10;;;7.87;;
13122;SDS011;6627;50.920;12.050;2024-03-22T07:44:32;14.33;;;8.90;;
13122;SDS011;6627;50.920;12.050;2024-03-22T07:46:59;12.40;;;8.60;;
13122;SDS011;6627;50.920;12.050;2024-03-22T07:49:26;18.70;;;8.83;;
13122;SDS011;6627;50.920;12.050;2024-03-22T07:51:55;11.63;;;7.93;;
13122;SDS011;6627;50.920;12.050;2024-03-22T07:54:22;11.93;;;9.03;;
13122;SDS011;6627;50.920;12.050;2024-03-22T07:56:49;10.77;;;8.13;;
13122;SDS011;6627;50.920;12.050;2024-03-22T07:59:16;13.70;;;8.27;;
13122;SDS011;6627;50.920;12.050;2024-03-22T08:01:43;12.93;;;8.67;;
13122;SDS011;6627;50.920;12.050;2024-03-22T08:04:10;14.80;;;8.57;;
13122;SDS011;6627;50.920;12.050;2024-03-22T08:06:38;14.70;;;8.53;;
13122;SDS011;6627;50.920;12.050;2024-03-22T08:09:07;14.13;;;9.20;;
13122;SDS011;6627;50.920;12.050;2024-03-22T08:11:33;12.77;;;8.50;;
13122;SDS011;6627;50.920;12.050;2024-03-22T08:14:00;13.53;;;8.63;;
13122;SDS011;6627;50.920;12.050;2024-03-22T08:16:27;13.33;;;8.47;;
13122;SDS011;6627;50.920;12.050;2024-03-22T08:18:55;12.20;;;8.47;;
13122;SDS011;6627;50.920;12.050;2024-03-22T08:21:22;14.90;;;9.10;;
13122;SDS011;6627;50.920;12.050;2024-03-22T08:23:50;13.80;;;8.83;;
13122;SDS011;6627;50.920;12.050;2024-03-22T08:26:18;11.93;;;8.27;;
13122;SDS011;6627;50.920;12.050;2024-03-22T08:28:46;11.40;;;8.40;;
13122;SDS011;6627;50.920;12.050;2024-03-22T08:31:12;12.20;;;7.97;;
13122;SDS011;6627;50.920;12.050;2024-03-22T08:33:40;13.40;;;8.47;;
13122;SDS011;6627;50.920;12.050;2024-03-22T08:36:06;14.37;;;8.97;;
13122;SDS011;6627;50.920;12.050;2024-03-22T08:38:34;12.50;;;8.80;;
13122;SDS011;6627;50.920;12.050;2024-03-22T08:41:01;16.60;;;8.80;;
13122;SDS011;6627;50.920;12.050;2024-03-22T08:43:30;12.90;;;8.37;;
13122;SDS011;6627;50.920;12.050;2024-03-22T08:45:56;11.20;;;8.03;;
13122;SDS011;6627;50.920;12.050;2024-03-22T08:48:23;11.77;;;8.17;;
13122;SDS011;6627;50.920;12.050;2024-03-22T08:50:50;12.93;;;8.77;;
13122;SDS011;6627;50.920;12.050;2024-03-22T08:53:17;10.20;;;7.77;;
13122;SDS011;6627;50.920;12.050;2024-03-22T08:55:47;11.47;;;8.20;;
13122;SDS011;6627;50.920;12.050;2024-03-22T08:58:15;13.43;;;7.90;;
13122;SDS011;6627;50.920;12.050;2024-03-22T09:00:44;13.50;;;8.97;;
13122;SDS011;6627;50.920;12.050;2024-03-22T09:03:11;11.77;;;8.43;;
13122;SDS011;6627;50.920;12.050;2024-03-22T09:05:40;13.53;;;9.50;;
13122;SDS011;6627;50.920;12.050;2024-03-22T09:08:07;13.30;;;9.00;;
13122;SDS011;6627;50.920;12.050;2024-03-22T09:10:35;14.83;;;8.27;;
13122;SDS011;6627;50.920;12.050;2024-03-22T09:13:02;13.67;;;8.87;;
13122;SDS011;6627;50.920;12.050;2024-03-22T09:15:29;14.27;;;8.90;;
13122;SDS011;6627;50.920;12.050;2024-03-22T09:17:57;13.97;;;8.80;;
13122;SDS011;6627;50.920;12.050;2024-03-22T09:20:24;11.77;;;8.83;;
13122;SDS011;6627;50.920;12.050;2024-03-22T09:22:51;14.50;;;8.97;;
13122;SDS011;6627;50.920;12.050;2024-03-22T09:25:17;15.40;;;9.20;;
13122;SDS011;6627;50.920;12.050;2024-03-22T09:27:45;14.07;;;9.10;;
13122;SDS011;6627;50.920;12.050;2024-03-22T09:30:12;14.47;;;9.40;;
13122;SDS011;6627;50.920;12.050;2024-03-22T09:32:40;14.00;;;9.37;;
13122;SDS011;6627;50.920;12.050;2024-03-22T09:35:09;14.77;;;9.60;;
13122;SDS011;6627;50.920;12.050;2024-03-22T09:37:40;13.07;;;9.33;;
13122;SDS011;6627;50.920;12.050;2024-03-22T09:40:06;13.17;;;9.03;;
13122;SDS011;6627;50.920;12.050;2024-03-22T09:42:35;13.53;;;9.63;;
13122;SDS011;6627;50.920;12.050;2024-03-22T09:45:05;13.43;;;9.20;;
13122;SDS011;6627;50.920;12.050;2024-03-22T09:47:36;14.17;;;8.63;;
13122;SDS011;6627;50.920;12.050;2024-03-22T09:50:04;15.17;;;9.83;;
13122;SDS011;6627;50.920;12.050;2024-03-22T09:52:36;13.60;;;9.20;;
13122;SDS011;6627;50.920;12.050;2024-03-22T09:55:05;13.07;;;9.50;;
13122;SDS011;6627;50.920;12.050;2024-03-22T09:57:34;13.87;;;9.87;;
13122;SDS011;6627;50.920;12.050;2024-03-22T10:00:06;11.60;;;8.43;;
13122;SDS011;6627;50.920;12.050;2024-03-22T10:02:35;13.43;;;9.50;;
13122;SDS011;6627;50.920;12.050;2024-03-22T10:05:02;14.10;;;10.47;;
13122;SDS011;6627;50.920;12.050;2024-03-22T10:07:30;12.50;;;9.10;;
13122;SDS011;6627;50.920;12.050;2024-03-22T10:10:00;15.77;;;9.57;;
13122;SDS011;6627;50.920;12.050;2024-03-22T10:12:28;15.57;;;10.23;;
13122;SDS011;6627;50.920;12.050;2024-03-22T10:14:55;13.50;;;9.60;;
13122;SDS011;6627;50.920;12.050;2024-03-22T10:17:22;13.93;;;10.00;;
13122;SDS011;6627;50.920;12.050;2024-03-22T10:19:52;14.30;;;10.07;;
13122;SDS011;6627;50.920;12.050;2024-03-22T10:22:19;13.93;;;9.43;;
13122;SDS011;6627;50.920;12.050;2024-03-22T10:24:46;15.10;;;9.20;;
13122;SDS011;6627;50.920;12.050;2024-03-22T10:27:14;14.87;;;9.87;;
13122;SDS011;6627;50.920;12.050;2024-03-22T10:29:41;12.73;;;9.43;;
13122;SDS011;6627;50.920;12.050;2024-03-22T10:32:09;12.23;;;9.90;;
13122;SDS011;6627;50.920;12.050;2024-03-22T10:34:36;12.97;;;9.57;;
13122;SDS011;6627;50.920;12.050;2024-03-22T10:37:06;12.73;;;9.57;;
13122;SDS011;6627;50.920;12.050;2024-03-22T10:39:39;13.57;;;9.53;;
13122;SDS011;6627;50.920;12.050;2024-03-22T10:42:08;13.67;;;9.27;;
13122;SDS011;6627;50.920;12.050;2024-03-22T10:44:37;12.40;;;9.33;;
13122;SDS011;6627;50.920;12.050;2024-03-22T10:47:05;13.27;;;9.60;;
13122;SDS011;6627;50.920;12.050;2024-03-22T10:49:36;12.53;;;9.53;;
13122;SDS011;6627;50.920;12.050;2024-03-22T10:52:04;14.87;;;8.87;;
13122;SDS011;6627;50.920;12.050;2024-03-22T10:54:35;12.80;;;8.73;;
13122;SDS011;6627;50.920;12.050;2024-03-22T10:57:11;14.30;;;9.17;;
13122;SDS011;6627;50.920;12.050;2024-03-22T10:59:42;12.80;;;9.73;;
13122;SDS011;6627;50.920;12.050;2024-03-22T11:02:10;13.37;;;9.47;;
13122;SDS011;6627;50.920;12.050;2024-03-22T11:04:37;13.20;;;8.60;;
13122;SDS011;6627;50.920;12.050;2024-03-22T11:07:04;13.60;;;9.00;;
13122;SDS011;6627;50.920;12.050;2024-03-22T11:09:31;10.83;;;8.37;;
13122;SDS011;6627;50.920;12.050;2024-03-22T11:11:58;9.20;;;7.37;;
13122;SDS011;6627;50.920;12.050;2024-03-22T11:14:25;12.63;;;8.73;;
13122;SDS011;6627;50.920;12.050;2024-03-22T11:16:55;12.13;;;8.27;;
13122;SDS011;6627;50.920;12.050;2024-03-22T11:19:21;12.03;;;8.37;;
13122;SDS011;6627;50.920;12.050;2024-03-22T11:21:48;11.63;;;8.63;;
13122;SDS011;6627;50.920;12.050;2024-03-22T11:24:15;14.17;;;9.13;;
13122;SDS011;6627;50.920;12.050;2024-03-22T11:26:42;12.57;;;9.00;;
13122;SDS011;6627;50.920;12.050;2024-03-22T11:29:10;13.50;;;8.57;;
13122;SDS011;6627;50.920;12.050;2024-03-22T11:31:37;14.37;;;8.87;;
13122;SDS011;6627;50.920;12.050;2024-03-22T11:34:05;12.40;;;9.07;;
13122;SDS011;6627;50.920;12.050;2024-03-22T11:36:32;15.03;;;9.30;;
13122;SDS011;6627;50.920;12.050;2024-03-22T11:39:00;10.70;;;8.07;;
13122;SDS011;6627;50.920;12.050;2024-03-22T11:41:29;12.47;;;9.33;;
13122;SDS011;6627;50.920;12.050;2024-03-22T11:43:57;11.83;;;8.40;;
13122;SDS011;6627;50.920;12.050;2024-03-22T11:46:26;11.87;;;8.70;;
13122;SDS011;6627;50.920;12.050;2024-03-22T11:48:53;12.67;;;8.50;;
13122;SDS011;6627;50.920;12.050;2024-03-22T11:51:22;14.37;;;8.93;;
13122;SDS011;6627;50.920;12.050;2024-03-22T11:53:49;13.47;;;8.40;;
13122;SDS011;6627;50.920;12.050;2024-03-22T11:56:17;11.70;;;8.50;;
13122;SDS011;6627;50.920;12.050;2024-03-22T11:58:45;13.60;;;9.20;;
13122;SDS011;6627;50.920;12.050;2024-03-22T12:01:14;11.10;;;8.37;;
13122;SDS011;6627;50.920;12.050;2024-03-22T12:03:43;12.13;;;8.20;;
13122;SDS011;6627;50.920;12.050;2024-03-22T12:06:10;14.27;;;8.77;;
13122;SDS011;6627;50.920;12.050;2024-03-22T12:08:38;11.80;;;8.70;;
13122;SDS011;6627;50.920;12.050;2024-03-22T12:11:06;12.07;;;8.63;;
13122;SDS011;6627;50.920;12.050;2024-03-22T12:13:33;12.03;;;9.33;;
13122;SDS011;6627;50.920;12.050;2024-03-22T12:16:03;11.63;;;8.60;;
13122;SDS011;6627;50.920;12.050;2024-03-22T12:18:30;13.00;;;9.73;;
13122;SDS011;6627;50.920;12.050;2024-03-22T12:20:58;14.13;;;9.50;;
13122;SDS011;6627;50.920;12.050;2024-03-22T12:23:25;11.37;;;9.37;;
13122;SDS011;6627;50.920;12.050;2024-03-22T12:25:54;11.47;;;8.73;;
13122;SDS011;6627;50.920;12.050;2024-03-22T12:28:21;13.07;;;8.93;;
13122;SDS011;6627;50.920;12.050;2024-03-22T12:30:49;14.23;;;10.03;;
13122;SDS011;6627;50.920;12.050;2024-03-22T12:33:15;12.13;;;8.90;;
13122;SDS011;6627;50.920;12.050;2024-03-22T12:35:43;13.67;;;10.03;;
13122;SDS011;6627;50.920;12.050;2024-03-22T12:38:09;13.50;;;9.50;;
13122;SDS011;6627;50.920;12.050;2024-03-22T12:40:39;13.67;;;10.67;;
13122;SDS011;6627;50.920;12.050;2024-03-22T12:43:07;13.33;;;10.23;;
13122;SDS011;6627;50.920;12.050;2024-03-22T12:45:36;15.23;;;10.20;;
13122;SDS011;6627;50.920;12.050;2024-03-22T12:48:04;13.87;;;10.13;;
13122;SDS011;6627;50.920;12.050;2024-03-22T12:50:32;17.00;;;10.20;;
13122;SDS011;6627;50.920;12.050;2024-03-22T12:52:59;12.90;;;9.80;;
13122;SDS011;6627;50.920;12.050;2024-03-22T12:55:26;12.83;;;10.07;;
13122;SDS011;6627;50.920;12.050;2024-03-22T12:57:54;15.60;;;10.33;;
13122;SDS011;6627;50.920;12.050;2024-03-22T13:00:22;12.70;;;9.57;;
13122;SDS011;6627;50.920;12.050;2024-03-22T13:02:49;13.20;;;10.23;;
13122;SDS011;6627;50.920;12.050;2024-03-22T13:05:16;13.70;;;9.77;;
13122;SDS011;6627;50.920;12.050;2024-03-22T13:07:42;13.87;;;10.63;;
13122;SDS011;6627;50.920;12.050;2024-03-22T13:10:10;13.37;;;9.53;;
13122;SDS011;6627;50.920;12.050;2024-03-22T13:12:38;14.30;;;9.80;;
13122;SDS011;6627;50.920;12.050;2024-03-22T13:15:05;15.50;;;10.27;;
13122;SDS011;6627;50.920;12.050;2024-03-22T13:17:34;14.50;;;9.77;;
13122;SDS011;6627;50.920;12.050;2024-03-22T13:20:01;12.23;;;9.47;;
13122;SDS011;6627;50.920;12.050;2024-03-22T13:22:34;13.03;;;9.27;;
13122;SDS011;6627;50.920;12.050;2024-03-22T13:25:01;16.63;;;10.33;;
13122;SDS011;6627;50.920;12.050;2024-03-22T13:27:32;16.70;;;9.53;;
13122;SDS011;6627;50.920;12.050;2024-03-22T13:29:59;14.07;;;9.87;;
13122;SDS011;6627;50.920;12.050;2024-03-22T13:32:26;14.50;;;9.53;;
13122;SDS011;6627;50.920;12.050;2024-03-22T13:34:55;12.73;;;8.87;;
13122;SDS011;6627;50.920;12.050;2024-03-22T13:37:21;10.30;;;8.33;;
13122;SDS011;6627;50.920;12.050;2024-03-22T13:39:48;10.97;;;8.10;;
13122;SDS011;6627;50.920;12.050;2024-03-22T13:42:15;10.90;;;7.57;;
13122;SDS011;6627;50.920;12.050;2024-03-22T13:44:42;11.17;;;7.43;;
13122;SDS011;6627;50.920;12.050;2024-03-22T13:47:09;11.73;;;8.30;;
13122;SDS011;6627;50.920;12.050;2024-03-22T13:49:36;11.07;;;7.60;;
13122;SDS011;6627;50.920;12.050;2024-03-22T13:52:05;14.23;;;7.80;;
13122;SDS011;6627;50.920;12.050;2024-03-22T13:54:32;11.27;;;8.10;;
13122;SDS011;6627;50.920;12.050;2024-03-22T13:56:59;13.33;;;9.07;;
13122;SDS011;6627;50.920;12.050;2024-03-22T13:59:27;9.37;;;7.83;;
13122;SDS011;6627;50.920;12.050;2024-03-22T14:01:54;11.77;;;8.03;;
13122;SDS011;6627;50.920;12.050;2024-03-22T14:04:21;8.53;;;7.53;;
13122;SDS011;6627;50.920;12.050;2024-03-22T14:06:48;9.70;;;7.20;;
13122;SDS011;6627;50.920;12.050;2024-03-22T14:09:17;13.23;;;8.03;;
13122;SDS011;6627;50.920;12.050;2024-03-22T14:11:44;11.07;;;7.93;;
13122;SDS011;6627;50.920;12.050;2024-03-22T14:14:14;13.67;;;7.57;;
13122;SDS011;6627;50.920;12.050;2024-03-22T14:16:40;11.47;;;7.03;;
13122;SDS011;6627;50.920;12.050;2024-03-22T14:19:08;10.73;;;8.40;;
13122;SDS011;6627;50.920;12.050;2024-03-22T14:21:34;10.57;;;7.93;;
13122;SDS011;6627;50.920;12.050;2024-03-22T14:24:04;10.83;;;7.50;;
13122;SDS011;6627;50.920;12.050;2024-03-22T14:26:31;11.93;;;7.70;;
13122;SDS011;6627;50.920;12.050;2024-03-22T14:28:59;10.40;;;8.03;;
13122;SDS011;6627;50.920;12.050;2024-03-22T14:31:25;9.27;;;6.97;;
13122;SDS011;6627;50.920;12.050;2024-03-22T14:33:53;9.23;;;7.00;;
13122;SDS011;6627;50.920;12.050;2024-03-22T14:36:19;9.20;;;6.50;;